• Join FlightAware (Why Join?)
  • Login
  • US Flag 
02:55PM EDT


 

Airport Tracker/Info


-or-


 

Live Flight TrackerFlight Track Log ✈ N600GD ✈ 28-Feb-2014 ✈ KEFK - KTAN

Flight Track Log - Related Links

Times and Time Zones

All times are in EST time to prevent confusion due to time zone crossing. See the N600GD flight status page for this flight to view local times or setup timezone preferences in your user account.

Time Position Orientation Groundspeed Altitude Reporting Facility
EST Latitude Longitude Course Direction KTS MPH feet Rate Location/Type
03:40PM 44.7744 -72.2406 177° South 113 130 5,700  Level Boston Center
03:41PM 44.7433 -72.2342 172° South 113 130 6,600 960 Climbing Boston Center
03:42PM 44.7114 -72.2258 169° South 115 132 7,700 840 Climbing Boston Center
03:43PM 44.6772 -72.2189 172° South 118 136 8,400 660 Climbing Boston Center
03:44PM 44.6436 -72.2133 173° South 120 138 9,100 360 Climbing Boston Center
03:45PM 44.6077 -72.2000 180° South  Level FlightAware Approximate
03:45PM 44.6058 -72.2092 176° South 126 145 9,200  Level Boston Center
03:46PM 44.5615 -72.1996 177° South  Level FlightAware Approximate
03:46PM 44.5589 -72.2069 178° South 158 182 9,000  Level Boston Center
03:47PM 44.5125 -72.1981 172° South 168 193 9,000  Level Boston Center
03:48PM 44.4608 -72.1836 169° South 164 189 9,000 -60 Level Boston Center
03:49PM 44.4214 -72.1717 168° South 168 193 8,900 -60 Descending Boston Center
03:50PM 44.3667 -72.1383 156° South 174 200 8,900  Level Boston Center
03:51PM 44.3211 -72.1119 157° South 177 204 9,000  Climbing Boston Center
03:52PM 44.2747 -72.0836 156° South 180 207 9,000  Level Boston Center
03:53PM 44.2278 -72.0553 157° South 184 212 9,000  Level Boston Center
03:54PM 44.1872 -72.0328 158° South 177 204 9,000  Level Boston Center
03:55PM 44.1425 -72.0061 157° South 175 201 9,000  Level Boston Center
03:56PM 44.0869 -71.9747 158° South 178 205 9,000  Level Boston Center
03:57PM 44.0425 -71.9464 155° Southeast 178 205 9,000  Level Boston Center
03:58PM 43.9964 -71.9214 159° South 177 204 9,000 -60 Level Boston Center
04:00PM 43.9481 -71.8933 157° South 182 209 8,900  Descending Boston Center
04:01PM 43.9033 -71.8636 154° Southeast 181 208 9,100 60 Climbing Boston Center
04:02PM 43.8561 -71.8381 159° South 182 209 9,100  Level Boston Center
04:03PM 43.8078 -71.8094 157° South 184 212 9,100  Level Boston Center
04:04PM 43.7606 -71.7819 157° South 185 213 9,100 -60 Level Boston Center
04:05PM 43.7050 -71.7503 158° South 183 211 9,000 -60 Descending Boston Center
04:06PM 43.6581 -71.7225 157° South 183 211 9,000  Level Boston Center
04:07PM 43.6114 -71.6950 157° South 182 209 9,000  Level Boston Center
04:08PM 43.5653 -71.6689 158° South 180 207 9,000  Level Boston Center
04:09PM 43.5158 -71.6403 157° South 181 208 9,000  Level Boston Center
04:10PM 43.4694 -71.6136 157° South 182 209 9,000  Level Boston Center
04:11PM 43.4233 -71.5878 158° South 181 208 9,000 -60 Level Boston Center
04:12PM 43.3733 -71.5586 157° South 183 211 8,900  Descending Boston Center
04:12PM 43.3500 -71.5333 142° Southeast 181 208 9,000 60 Climbing KA90
04:13PM 43.3000 -71.5167 166° South 182 209 9,000  Level KA90
04:14PM 43.2500 -71.4833 154° Southeast 180 207 9,000 -180 Level KA90
04:15PM 43.2000 -71.4667 166° South 186 214 8,700 -420 Descending KA90
04:16PM 43.1500 -71.4333 154° Southeast 194 223 8,200 -480 Descending KA90
04:17PM 43.1000 -71.4000 154° Southeast 192 221 7,800 -480 Descending KA90
04:18PM 43.0500 -71.3833 166° South 190 219 7,300 -420 Descending KA90
04:19PM 43.0167 -71.3500 144° Southeast 180 207 7,000 -180 Descending KA90
04:20PM 42.9667 -71.3333 166° South 164 189 7,000  Level KA90
04:21PM 42.9333 -71.3000 144° Southeast 149 171 7,000  Level KA90
04:22PM 42.8833 -71.2833 166° South 154 177 7,000 -60 Level KA90
04:23PM 42.8619 -71.2697 155° Southeast 160 184 6,900 -120 Descending Boston Center
04:24PM 42.8194 -71.2461 158° South 164 189 6,900  Level Boston Center
04:25PM 42.7725 -71.2194 157° South 169 194 6,900  Level Boston Center
04:26PM 42.7308 -71.1969 158° South 164 189 6,900  Level Boston Center
04:27PM 42.6864 -71.1714 157° South 172 198 7,000  Climbing Boston Center
04:28PM 42.6406 -71.1461 158° South 165 190 7,000  Level Boston Center
04:29PM 42.5969 -71.1219 158° South 168 193 7,000  Level Boston Center
04:30PM 42.5531 -71.0978 158° South 171 197 7,000  Level Boston Center
04:31PM 42.5058 -71.0711 157° South 171 197 7,000  Level Boston Center
04:32PM 42.4622 -71.0478 158° South 171 197 7,000  Level Boston Center
04:33PM 42.4186 -71.0222 157° South 171 197 7,000  Level Boston Center
04:34PM 42.3667 -71.0000 162° South 172 198 7,000 -60 Level KA90
04:35PM 42.3167 -70.9833 166° South 159 183 6,900 -420 Descending KA90
04:36PM 42.2833 -71.0000 200° South 173 199 6,200 -840 Descending KA90
04:37PM 42.2333 -71.0000 180° South 178 205 5,300 -960 Descending KA90
04:39PM 42.1667 -71.0000 180° South 175 201 4,300 -900 Descending KA90
04:40PM 42.1333 -71.0000 180° South 163 188 3,500 -660 Descending KA90
04:41PM 42.0833 -71.0000 180° South 155 178 3,000 -540 Descending KA90
04:43PM 42.0376 -71.0036 171° South  Level Estimated
04:50PM 41.8745 -71.0163 160° South  Level Estimated
04:51PM 41.8745 -71.0163 160° South  Level Estimated
04:52PM 41.8745 -71.0163 160° South  Level Estimated
04:53PM 41.8745 -71.0163 160° South  Level Estimated
04:54PM 41.8745 -71.0163 160° South  Level Estimated
04:55PM 41.8745 -71.0163 160° South  Level Estimated
04:56PM 41.8745 -71.0163 160° South  Level Estimated
04:57PM 41.8745 -71.0163 160° South  Level Estimated
04:58PM 41.8745 -71.0163 160° South  Level Estimated
04:59PM 41.8745 -71.0163 160° South  Level Estimated
05:00PM 41.8745 -71.0163 160° South  Level Estimated
05:01PM 41.8745 -71.0163 160° South  Level Estimated